Terminal Aerodrome Forecast
Issued by NWS

Home | Current Version | Previous Version | Text Only | Print | Product List | Glossary On
Versions: 1 2 3 4 5 6 7 8 9 10 11 12
000
FTUS42 KGSP 290520
TAFAND
TAF
KAND 290520Z 2906/3006 11003KT P6SM FEW240
     FM291500 20006G14KT P6SM SCT220
     FM291800 21010G17KT P6SM SCT080 BKN220
     FM300100 21005G13KT P6SM BKN060=

USA.gov is the U.S. government's official web portal to all federal, state and local government web resources and services.